Time;durP1;ratioP1;P1;durP2;ratioP2;P2;SDS_P1;SDS_P2;PMS_P1;PMS_P2;Temp;Humidity;BMP_temperature;BMP_pressure;BME280_temperature;BME280_humidity;BME280_pressure;Samples;Min_cycle;Max_cycle;Signal;HPM_P1;HPM_P2
2022/06/09 00:04:38;;;;;;;16.73;12.85;;;15.00;99.90;;;;;;12186860;29;20138;-83
2022/06/09 00:10:50;;;;;;;22.88;15.50;;;14.90;99.90;;;;;;12183537;29;20485;-81
2022/06/09 00:16:52;;;;;;;21.30;17.33;;;14.90;99.90;;;;;;12180145;29;20127;-83
2022/06/09 00:22:54;;;;;;;32.53;18.67;;;14.80;99.90;;;;;;12175975;29;20505;-83
2022/06/09 00:28:56;;;;;;;25.17;18.48;;;14.80;99.90;;;;;;12198323;29;20047;-83
2022/06/09 00:34:58;;;;;;;27.35;18.58;;;14.80;99.90;;;;;;12199732;29;20067;-82
2022/06/09 00:41:02;;;;;;;30.10;19.48;;;14.80;99.90;;;;;;12183516;29;20099;-83
2022/06/09 00:47:12;;;;;;;30.75;19.08;;;14.90;99.90;;;;;;12185155;29;20059;-81
2022/06/09 00:53:20;;;;;;;25.83;18.70;;;14.90;99.90;;;;;;12195982;29;20215;-83
2022/06/09 00:59:26;;;;;;;26.67;19.08;;;14.90;99.90;;;;;;12190129;29;20052;-82
2022/06/09 01:05:31;;;;;;;28.08;20.55;;;14.90;99.90;;;;;;12189566;29;20044;-82
2022/06/09 01:11:33;;;;;;;30.20;21.75;;;14.90;99.90;;;;;;12177610;29;20469;-82
2022/06/09 01:18:07;;;;;;;31.63;21.02;;;14.90;99.90;;;;;;12180570;29;20052;-82
2022/06/09 01:24:43;;;;;;;31.02;22.70;;;14.90;99.90;;;;;;12182072;29;20052;-83
2022/06/09 01:30:54;;;;;;;35.67;22.58;;;14.80;99.90;;;;;;12185973;29;20067;-82
2022/06/09 01:37:25;;;;;;;32.33;21.23;;;14.80;99.90;;;;;;12208878;29;20527;-83
2022/06/09 01:43:27;;;;;;;28.65;20.17;;;14.90;99.90;;;;;;12206550;29;20527;-82
2022/06/09 01:49:32;;;;;;;28.80;21.02;;;14.90;99.90;;;;;;12200491;29;20057;-82
2022/06/09 01:55:38;;;;;;;25.73;19.58;;;14.80;99.90;;;;;;12204319;29;20535;-81
2022/06/09 02:01:48;;;;;;;23.75;19.73;;;14.90;99.90;;;;;;12208881;29;20872;-83
2022/06/09 02:07:54;;;;;;;28.92;19.17;;;14.80;99.90;;;;;;12202341;29;20421;-82
2022/06/09 02:13:57;;;;;;;25.73;18.27;;;14.80;99.90;;;;;;12203161;29;20529;-83
2022/06/09 02:19:59;;;;;;;28.08;17.77;;;14.70;99.90;;;;;;12205984;29;20497;-82
2022/06/09 02:26:01;;;;;;;29.15;19.48;;;14.60;99.90;;;;;;12193370;29;20090;-83
2022/06/09 02:32:03;;;;;;;24.73;18.30;;;14.60;99.90;;;;;;12200835;29;20069;-82
2022/06/09 02:38:05;;;;;;;25.00;19.33;;;14.60;99.90;;;;;;12194120;29;20468;-83
2022/06/09 02:44:07;;;;;;;26.50;18.73;;;14.70;99.90;;;;;;12180047;29;20048;-81
2022/06/09 02:50:09;;;;;;;29.27;20.42;;;14.80;99.90;;;;;;12193537;29;20063;-83
2022/06/09 02:56:11;;;;;;;30.42;19.83;;;14.70;99.90;;;;;;12199444;29;20052;-84
2022/06/09 03:02:13;;;;;;;29.83;21.35;;;14.60;99.90;;;;;;12202279;29;20049;-83
2022/06/09 03:08:15;;;;;;;33.40;22.05;;;14.60;99.90;;;;;;12181505;29;20094;-82
2022/06/09 03:14:17;;;;;;;33.17;21.98;;;14.60;99.90;;;;;;12181728;29;20060;-82
2022/06/09 03:20:23;;;;;;;31.27;21.70;;;14.70;99.90;;;;;;12183418;29;20068;-83
2022/06/09 03:26:25;;;;;;;30.90;20.42;;;14.70;99.90;;;;;;12192811;29;20106;-83
2022/06/09 03:32:27;;;;;;;30.88;21.27;;;14.60;99.90;;;;;;12198622;29;20139;-83
2022/06/09 03:38:29;;;;;;;30.30;21.75;;;14.50;99.90;;;;;;12199243;29;20119;-84
2022/06/09 03:44:31;;;;;;;34.38;22.17;;;14.50;99.90;;;;;;12201554;29;20040;-83
2022/06/09 03:50:34;;;;;;;31.42;22.65;;;14.50;99.90;;;;;;12200352;29;20044;-83
2022/06/09 03:56:35;;;;;;;33.15;22.55;;;14.50;99.90;;;;;;12201308;29;20056;-82
2022/06/09 04:02:37;;;;;;;35.53;25.08;;;14.60;99.90;;;;;;12197027;29;20095;-84
2022/06/09 04:08:39;;;;;;;34.63;25.35;;;14.50;99.90;;;;;;12182813;29;20067;-83
2022/06/09 04:14:42;;;;;;;38.80;25.92;;;14.30;99.90;;;;;;12182788;29;20088;-84
2022/06/09 04:20:44;;;;;;;34.45;24.50;;;14.30;99.90;;;;;;12178021;29;20062;-83
2022/06/09 04:26:46;;;;;;;31.55;22.85;;;14.30;99.90;;;;;;12182139;29;20080;-83
2022/06/09 04:32:48;;;;;;;33.40;22.42;;;14.30;99.90;;;;;;12202679;29;20142;-84
2022/06/09 04:38:50;;;;;;;30.73;21.55;;;14.30;99.90;;;;;;12190398;29;20186;-84
2022/06/09 04:44:53;;;;;;;33.53;21.45;;;14.30;99.90;;;;;;12195755;29;20115;-83
2022/06/09 04:50:55;;;;;;;29.83;20.67;;;14.40;99.90;;;;;;12180119;29;20509;-84
2022/06/09 04:56:57;;;;;;;31.63;21.17;;;14.50;99.90;;;;;;12197312;29;20118;-83
2022/06/09 05:03:00;;;;;;;30.75;20.08;;;14.50;99.90;;;;;;12177692;29;20452;-84
2022/06/09 05:09:02;;;;;;;28.45;20.65;;;14.50;99.90;;;;;;12194595;29;20488;-82
2022/06/09 05:15:05;;;;;;;29.45;20.60;;;14.60;99.90;;;;;;12181147;29;20115;-85
2022/06/09 05:21:08;;;;;;;35.90;21.38;;;14.50;99.90;;;;;;12212874;29;20048;-85
2022/06/09 05:27:11;;;;;;;27.67;20.17;;;14.60;99.90;;;;;;12182709;29;20060;-83
2022/06/09 05:33:13;;;;;;;30.00;21.33;;;14.50;99.90;;;;;;12173693;29;20444;-83
2022/06/09 05:45:35;;;;;;;32.58;20.60;;;14.50;99.90;;;;;;12188838;29;20048;-82
2022/06/09 05:51:37;;;;;;;30.40;21.85;;;14.40;99.90;;;;;;12193289;29;20056;-83
2022/06/09 05:57:39;;;;;;;29.33;19.73;;;14.40;99.90;;;;;;12191191;29;20172;-84
2022/06/09 06:03:42;;;;;;;24.63;19.08;;;14.40;99.90;;;;;;12177098;29;20107;-84
2022/06/09 06:09:44;;;;;;;27.67;20.02;;;14.40;99.90;;;;;;12192670;29;20127;-83
2022/06/09 06:15:46;;;;;;;27.02;19.92;;;14.50;99.90;;;;;;12193315;29;20107;-84
2022/06/09 06:21:49;;;;;;;29.08;19.52;;;14.90;99.90;;;;;;12173922;29;20048;-84
2022/06/09 06:27:51;;;;;;;21.30;18.07;;;15.00;99.90;;;;;;12190825;29;20052;-84
2022/06/09 06:33:53;;;;;;;25.27;18.73;;;14.90;99.90;;;;;;12182461;29;20048;-84
2022/06/09 06:39:55;;;;;;;26.85;19.52;;;15.00;99.90;;;;;;12191216;29;20405;-85
2022/06/09 06:45:57;;;;;;;31.25;19.10;;;15.20;99.90;;;;;;12191873;29;20067;-84
2022/06/09 06:51:59;;;;;;;26.52;18.48;;;15.20;99.90;;;;;;12181953;29;20048;-84
2022/06/09 06:58:00;;;;;;;23.13;17.58;;;15.20;99.90;;;;;;12199264;29;20068;-83
2022/06/09 07:04:03;;;;;;;23.33;17.70;;;15.10;99.90;;;;;;12179264;29;20126;-83
2022/06/09 07:10:06;;;;;;;25.90;17.40;;;15.20;99.90;;;;;;12194499;29;20509;-84
2022/06/09 07:16:09;;;;;;;21.83;16.33;;;15.30;99.90;;;;;;12195802;29;20542;-85
2022/06/09 07:22:30;;;;;;;26.88;16.70;;;15.30;99.90;;;;;;12205067;29;20051;-84
2022/06/09 07:28:32;;;;;;;23.02;16.23;;;15.30;99.90;;;;;;12188714;29;20127;-85
2022/06/09 07:34:35;;;;;;;20.98;15.10;;;15.40;99.90;;;;;;12199585;29;20139;-84
2022/06/09 07:40:39;;;;;;;23.67;14.65;;;15.30;99.90;;;;;;12179105;29;20052;-84
2022/06/09 07:46:41;;;;;;;16.90;12.35;;;15.40;99.90;;;;;;12207939;29;20060;-84
2022/06/09 07:52:43;;;;;;;21.30;12.60;;;15.40;99.90;;;;;;12185276;29;20052;-85
2022/06/09 07:58:45;;;;;;;20.02;11.57;;;15.50;99.90;;;;;;12201192;29;20104;-82
2022/06/09 08:04:47;;;;;;;16.88;11.00;;;15.50;99.90;;;;;;12197263;28;20059;-85
2022/06/09 08:10:49;;;;;;;22.58;12.32;;;15.70;99.90;;;;;;12196723;29;20051;-85
2022/06/09 08:16:51;;;;;;;21.02;11.13;;;15.80;99.90;;;;;;12189000;29;20080;-84
2022/06/09 08:23:01;;;;;;;16.83;10.18;;;16.00;99.90;;;;;;12175641;29;20056;-83
2022/06/09 08:29:03;;;;;;;16.65;8.88;;;16.10;99.90;;;;;;12182951;29;20044;-84
2022/06/09 08:35:09;;;;;;;14.95;9.05;;;16.10;99.90;;;;;;12194888;29;20143;-83
2022/06/09 08:41:22;;;;;;;17.45;10.27;;;16.10;99.90;;;;;;12198360;29;20089;-84
2022/06/09 08:47:35;;;;;;;14.60;9.88;;;16.10;99.90;;;;;;12197091;29;20131;-85
2022/06/09 08:53:51;;;;;;;12.97;9.60;;;16.10;99.90;;;;;;12201460;29;20116;-83
2022/06/09 08:59:57;;;;;;;18.65;10.10;;;15.90;99.90;;;;;;12166067;29;20173;-84
2022/06/09 09:06:17;;;;;;;14.85;9.40;;;15.80;99.90;;;;;;12190240;29;20338;-84
2022/06/09 09:12:35;;;;;;;21.25;10.23;;;15.80;99.90;;;;;;12178010;29;20137;-83
2022/06/09 09:18:52;;;;;;;16.80;9.98;;;16.00;99.90;;;;;;12189817;29;20114;-85
2022/06/09 09:25:13;;;;;;;15.82;8.85;;;16.30;99.90;;;;;;12199799;29;20102;-83
2022/06/09 09:31:20;;;;;;;16.75;9.15;;;16.40;99.90;;;;;;12196579;29;20061;-85
2022/06/09 09:37:38;;;;;;;13.93;8.40;;;16.30;99.90;;;;;;12177136;29;20059;-84
2022/06/09 09:43:41;;;;;;;13.23;7.65;;;16.60;99.90;;;;;;12193523;29;20056;-84
2022/06/09 09:49:48;;;;;;;12.98;7.85;;;16.80;99.90;;;;;;12195903;29;20095;-83
2022/06/09 09:55:50;;;;;;;12.27;6.55;;;16.80;99.90;;;;;;12193709;29;20068;-84
2022/06/09 10:08:40;;;;;;;12.73;6.20;;;17.50;99.90;;;;;;12194147;29;20492;-83
2022/06/09 10:15:17;;;;;;;16.40;6.75;;;17.40;99.90;;;;;;12206811;29;20147;-84
2022/06/09 10:21:19;;;;;;;8.48;5.20;;;17.60;99.90;;;;;;12191233;29;20556;-85
2022/06/09 10:27:26;;;;;;;7.80;3.70;;;17.50;99.90;;;;;;12193306;29;20176;-84
2022/06/09 10:33:51;;;;;;;8.38;3.65;;;17.70;99.90;;;;;;12216291;29;20512;-84
2022/06/09 10:40:19;;;;;;;12.40;3.80;;;17.70;99.90;;;;;;12188065;29;20052;-82
2022/06/09 10:55:14;;;;;;;7.20;3.60;;;17.60;99.90;;;;;;12195437;29;20147;-84
2022/06/09 10:59:58;;;;;;;5.57;2.90;;;17.30;99.90;;;;;;12197506;29;20087;-84
2022/06/09 11:06:18;;;;;;;5.72;2.50;;;17.20;99.90;;;;;;12187149;29;20060;-84
2022/06/09 11:12:33;;;;;;;4.90;1.65;;;17.30;99.90;;;;;;12194200;29;20067;-85
2022/06/09 11:19:17;;;;;;;5.90;1.33;;;17.80;99.90;;;;;;12192689;29;20048;-82
2022/06/09 11:25:43;;;;;;;5.90;1.70;;;18.10;99.90;;;;;;12143047;29;20052;-83
2022/06/09 11:32:06;;;;;;;4.45;1.40;;;18.50;99.90;;;;;;12201042;29;20191;-85
2022/06/09 11:38:32;;;;;;;3.42;1.40;;;18.50;99.90;;;;;;12183518;29;20064;-84
2022/06/09 11:44:37;;;;;;;2.72;1.63;;;18.70;99.90;;;;;;12184173;29;20533;-83
2022/06/09 11:50:42;;;;;;;3.08;1.10;;;18.80;99.90;;;;;;12179617;29;20093;-84
2022/06/09 11:56:44;;;;;;;4.10;0.95;;;18.70;99.90;;;;;;12182945;29;20056;-84
2022/06/09 12:03:04;;;;;;;3.58;1.40;;;18.50;99.90;;;;;;12176665;29;20052;-84
2022/06/09 12:09:23;;;;;;;3.85;1.15;;;18.40;99.90;;;;;;12213114;29;20115;-85
2022/06/09 12:15:30;;;;;;;2.40;1.10;;;18.30;99.90;;;;;;12243590;29;20087;-84
2022/06/09 12:21:37;;;;;;;2.20;0.95;;;18.20;99.90;;;;;;12191931;29;20142;-85
2022/06/09 12:27:44;;;;;;;6.18;0.95;;;18.20;99.90;;;;;;12193977;29;20052;-83
2022/06/09 12:34:05;;;;;;;4.55;1.15;;;18.20;99.90;;;;;;12197791;29;20064;-83
2022/06/09 12:40:18;;;;;;;3.78;1.00;;;18.20;99.90;;;;;;12197808;29;20060;-82
2022/06/09 12:46:25;;;;;;;4.38;1.40;;;18.10;99.90;;;;;;12182553;29;20088;-84
2022/06/09 12:52:27;;;;;;;1.77;1.00;;;18.00;99.90;;;;;;12200306;29;20083;-84
2022/06/09 12:58:40;;;;;;;3.35;0.90;;;18.00;99.90;;;;;;12184135;29;20584;-84
2022/06/09 13:05:08;;;;;;;1.60;0.60;;;18.10;99.90;;;;;;12197307;29;20048;-84
2022/06/09 13:12:50;;;;;;;1.95;0.50;;;18.20;99.90;;;;;;12200374;29;20135;-83
2022/06/09 13:17:44;;;;;;;;;;;19.00;99.90;;;;;;12202457;29;20091;-84
2022/06/09 13:23:50;;;;;;;1.85;0.63;;;19.50;99.90;;;;;;12191112;29;20408;-83
2022/06/09 13:29:56;;;;;;;1.33;0.57;;;19.90;99.90;;;;;;12186847;29;20477;-83
2022/06/09 13:36:17;;;;;;;1.95;0.73;;;20.10;99.90;;;;;;12202761;29;20184;-83
2022/06/09 13:42:31;;;;;;;1.40;0.70;;;20.20;99.90;;;;;;12192449;29;20096;-84
2022/06/09 13:48:59;;;;;;;;;;;20.00;99.90;;;;;;12200192;29;20056;-83
2022/06/09 13:55:02;;;;;;;3.88;0.98;;;19.60;99.90;;;;;;12176176;29;20399;-84
2022/06/09 14:01:09;;;;;;;2.40;0.90;;;19.20;99.90;;;;;;12178845;29;20591;-83
2022/06/09 14:07:15;;;;;;;;;;;18.70;99.90;;;;;;12183494;29;20079;-85
2022/06/09 14:13:18;;;;;;;5.00;1.77;;;18.50;99.90;;;;;;12190022;29;19958;-87
2022/06/09 14:19:22;;;;;;;;;;;18.10;99.90;;;;;;12194240;29;20140;-87
2022/06/09 14:25:25;;;;;;;5.45;2.10;;;17.60;99.90;;;;;;12189447;29;19974;-86
2022/06/09 14:31:27;;;;;;;4.30;2.10;;;17.40;99.90;;;;;;12198393;29;20879;-89
2022/06/09 14:37:29;;;;;;;5.15;2.20;;;17.00;99.90;;;;;;12219164;29;20067;-87
2022/06/09 14:43:31;;;;;;;9.43;2.88;;;17.10;99.90;;;;;;12199562;29;20083;-86
2022/06/09 14:49:33;;;;;;;8.73;2.88;;;17.20;99.90;;;;;;12184376;29;20828;-85
2022/06/09 14:55:37;;;;;;;7.93;2.55;;;17.30;99.90;;;;;;12191174;29;20062;-85
2022/06/09 15:01:39;;;;;;;5.97;2.40;;;17.30;99.90;;;;;;12183864;29;20142;-85
2022/06/09 15:07:42;;;;;;;6.35;2.20;;;17.40;99.90;;;;;;12186236;29;20139;-85
2022/06/09 15:13:43;;;;;;;7.68;2.70;;;17.30;99.90;;;;;;12204139;29;20052;-84
2022/06/09 15:19:45;;;;;;;6.18;2.90;;;17.10;99.90;;;;;;12192044;29;20103;-85
2022/06/09 15:25:56;;;;;;;4.88;3.15;;;16.90;99.90;;;;;;12180539;29;20464;-85
2022/06/09 15:31:58;;;;;;;6.78;3.25;;;16.90;99.90;;;;;;12190308;29;20424;-85
2022/06/09 15:38:00;;;;;;;4.72;2.67;;;16.90;99.90;;;;;;12183451;29;20048;-84
2022/06/09 15:44:02;;;;;;;4.68;2.38;;;17.00;99.90;;;;;;12193290;29;20099;-84
2022/06/09 15:50:05;;;;;;;8.38;2.70;;;16.40;99.90;;;;;;12187282;29;20064;-83
2022/06/09 15:56:07;;;;;;;8.80;3.40;;;16.30;99.90;;;;;;12194581;29;20123;-84
2022/06/09 16:02:10;;;;;;;6.78;3.25;;;16.20;99.90;;;;;;12182631;29;20127;-84
2022/06/09 16:08:17;;;;;;;6.33;2.97;;;16.00;99.90;;;;;;12204659;29;20444;-84
2022/06/09 16:14:19;;;;;;;4.60;2.20;;;16.10;99.90;;;;;;12191320;29;20108;-84
2022/06/09 16:20:24;;;;;;;5.40;1.75;;;16.10;99.90;;;;;;12194854;29;20052;-85
2022/06/09 16:26:26;;;;;;;4.13;1.60;;;16.70;99.90;;;;;;12176925;29;20618;-85
2022/06/09 16:32:28;;;;;;;6.20;2.38;;;17.30;99.90;;;;;;12200174;29;20094;-85
2022/06/09 16:38:30;;;;;;;4.82;1.30;;;17.70;99.90;;;;;;12189919;29;20101;-84
2022/06/09 16:44:32;;;;;;;3.08;1.40;;;18.00;99.90;;;;;;12186027;29;20116;-84
2022/06/09 16:50:34;;;;;;;4.13;1.67;;;18.30;99.90;;;;;;12189136;29;20063;-84
2022/06/09 16:56:35;;;;;;;4.70;1.65;;;18.20;99.90;;;;;;12180724;29;20525;-85
2022/06/09 17:02:37;;;;;;;4.88;1.70;;;17.90;99.90;;;;;;12198836;29;20048;-84
2022/06/09 17:08:41;;;;;;;2.33;1.50;;;17.80;99.90;;;;;;12201814;29;20051;-85
2022/06/09 17:14:44;;;;;;;4.18;1.70;;;18.10;99.90;;;;;;12189278;29;20056;-86
2022/06/09 17:20:47;;;;;;;3.15;1.65;;;18.10;99.90;;;;;;12187174;29;20048;-85
2022/06/09 17:26:49;;;;;;;3.25;1.60;;;18.30;99.90;;;;;;12187827;29;20166;-84
2022/06/09 17:32:51;;;;;;;4.32;1.73;;;18.10;99.90;;;;;;12190085;29;20258;-85
2022/06/09 17:38:53;;;;;;;5.60;1.45;;;18.30;99.90;;;;;;12200160;29;20075;-85
2022/06/09 17:44:55;;;;;;;8.27;2.03;;;18.40;99.90;;;;;;12186264;29;20180;-84
2022/06/09 17:50:57;;;;;;;6.80;1.92;;;18.30;99.90;;;;;;12210267;29;20070;-85
2022/06/09 17:56:59;;;;;;;4.05;1.88;;;18.40;99.90;;;;;;12207212;29;20572;-85
2022/06/09 18:03:02;;;;;;;4.47;1.65;;;18.40;99.90;;;;;;12197078;29;20128;-85
2022/06/09 18:09:06;;;;;;;5.28;1.63;;;18.20;99.90;;;;;;12176895;29;20062;-84
2022/06/09 18:15:09;;;;;;;4.35;1.35;;;17.80;99.90;;;;;;12181155;29;20059;-85
2022/06/09 18:21:11;;;;;;;5.05;1.60;;;17.80;99.90;;;;;;12200287;29;20056;-84
2022/06/09 18:27:13;;;;;;;3.22;1.38;;;17.60;99.90;;;;;;12203255;29;20067;-83
2022/06/09 18:33:15;;;;;;;2.92;1.30;;;17.40;99.90;;;;;;12203250;29;20179;-83
2022/06/09 18:39:17;;;;;;;6.00;1.75;;;17.40;99.90;;;;;;12194974;29;20540;-84
2022/06/09 18:45:19;;;;;;;4.85;1.63;;;17.30;99.90;;;;;;12184971;29;20143;-84
2022/06/09 18:51:21;;;;;;;5.43;1.67;;;17.30;99.90;;;;;;12205645;29;20135;-83
2022/06/09 18:57:28;;;;;;;4.35;1.20;;;17.20;99.90;;;;;;12187123;29;20075;-83
2022/06/09 19:03:29;;;;;;;4.68;1.42;;;17.10;99.90;;;;;;12183830;29;20147;-84
2022/06/09 19:09:34;;;;;;;7.25;1.50;;;17.20;99.90;;;;;;12185213;29;20086;-84
2022/06/09 19:15:36;;;;;;;6.50;1.65;;;17.20;99.90;;;;;;12184302;29;20102;-84
2022/06/09 19:21:38;;;;;;;6.22;2.00;;;17.00;99.90;;;;;;12212126;29;20062;-84
2022/06/09 19:27:40;;;;;;;4.72;1.77;;;16.90;99.90;;;;;;12202498;29;20052;-85
2022/06/09 19:33:42;;;;;;;7.50;2.20;;;16.90;99.90;;;;;;12206710;29;20493;-85
2022/06/09 19:39:44;;;;;;;6.65;2.33;;;16.90;99.90;;;;;;12197898;29;20064;-85
2022/06/09 19:45:46;;;;;;;4.95;2.55;;;16.80;99.90;;;;;;12188836;29;20052;-85
2022/06/09 19:51:48;;;;;;;8.63;2.58;;;16.70;99.90;;;;;;12188943;29;20421;-85
2022/06/09 19:57:50;;;;;;;6.10;2.40;;;16.50;99.90;;;;;;12200796;29;20114;-84
2022/06/09 20:03:52;;;;;;;4.72;2.50;;;16.40;99.90;;;;;;12188095;29;20119;-84
2022/06/09 20:09:54;;;;;;;8.23;2.58;;;16.30;99.90;;;;;;12198261;29;20099;-84
2022/06/09 20:15:56;;;;;;;4.80;2.25;;;16.30;99.90;;;;;;12201965;29;20135;-84
2022/06/09 20:21:58;;;;;;;8.52;2.40;;;16.20;99.90;;;;;;12183747;29;20425;-84
2022/06/09 20:28:01;;;;;;;7.50;2.58;;;16.10;99.90;;;;;;12209325;29;20052;-85
2022/06/09 20:34:03;;;;;;;5.40;2.55;;;16.20;99.90;;;;;;12202532;29;20055;-84
2022/06/09 20:40:05;;;;;;;6.63;2.35;;;16.10;99.90;;;;;;12199591;29;20067;-84
2022/06/09 20:46:19;;;;;;;9.38;2.58;;;16.10;99.90;;;;;;12195667;29;20529;-84
2022/06/09 20:52:22;;;;;;;9.00;2.42;;;16.10;99.90;;;;;;12187082;29;20187;-83
2022/06/09 20:58:24;;;;;;;5.93;2.92;;;15.90;99.90;;;;;;12191398;29;20138;-84
2022/06/09 21:04:26;;;;;;;7.03;2.40;;;15.90;99.90;;;;;;12192951;29;20087;-84
2022/06/09 21:23:10;;;;;;;7.93;2.85;;;16.00;99.90;;;;;;12201481;29;20106;-85
2022/06/09 21:29:12;;;;;;;8.82;2.50;;;16.00;99.90;;;;;;12172642;29;20139;-84
2022/06/09 21:35:14;;;;;;;6.07;1.92;;;16.00;99.90;;;;;;12196687;29;20104;-84
2022/06/09 21:41:16;;;;;;;7.43;2.35;;;16.00;99.90;;;;;;12179522;29;20060;-84
2022/06/09 21:47:18;;;;;;;6.60;2.35;;;15.90;99.90;;;;;;12178322;29;20150;-84
2022/06/09 21:53:20;;;;;;;5.50;2.40;;;15.90;99.90;;;;;;12180378;29;20179;-84
2022/06/09 21:59:22;;;;;;;5.82;2.13;;;15.80;99.90;;;;;;12207995;28;20108;-85
2022/06/09 22:05:24;;;;;;;7.68;2.75;;;15.70;99.90;;;;;;12226768;29;20048;-84
2022/06/09 22:11:26;;;;;;;7.93;2.67;;;15.60;99.90;;;;;;12200517;29;20532;-84
2022/06/09 22:17:29;;;;;;;7.30;2.75;;;15.50;99.90;;;;;;12211748;29;20175;-84
2022/06/09 22:23:30;;;;;;;6.95;2.80;;;15.50;99.90;;;;;;12210418;29;20398;-84
2022/06/09 22:29:32;;;;;;;9.40;2.83;;;15.60;99.90;;;;;;12204141;29;20052;-84
2022/06/09 22:35:35;;;;;;;8.55;2.97;;;15.60;99.90;;;;;;12186690;29;20567;-84
2022/06/09 22:41:36;;;;;;;7.88;2.75;;;15.50;99.90;;;;;;12214466;29;20063;-84
2022/06/09 22:47:39;;;;;;;8.82;3.00;;;15.50;99.90;;;;;;12183228;29;20458;-84
2022/06/09 22:53:41;;;;;;;8.32;3.55;;;15.30;99.90;;;;;;12205191;29;20135;-84
2022/06/09 22:59:43;;;;;;;7.82;3.20;;;15.30;99.90;;;;;;12192444;29;20464;-84
2022/06/09 23:05:45;;;;;;;7.68;3.53;;;15.20;99.90;;;;;;12196695;29;20146;-84
2022/06/09 23:11:46;;;;;;;7.55;3.45;;;15.20;99.90;;;;;;12189763;29;20048;-84
2022/06/09 23:17:49;;;;;;;8.90;3.67;;;15.20;99.90;;;;;;12183932;29;20406;-84
2022/06/09 23:23:50;;;;;;;7.53;3.92;;;15.20;99.90;;;;;;12192789;29;20568;-84
2022/06/09 23:29:52;;;;;;;8.65;4.32;;;15.20;99.90;;;;;;12189721;29;20056;-84
2022/06/09 23:35:54;;;;;;;10.90;4.15;;;15.20;99.90;;;;;;12213261;29;20393;-84
2022/06/09 23:41:56;;;;;;;10.25;4.18;;;15.10;99.90;;;;;;12206932;29;20060;-84
2022/06/09 23:48:16;;;;;;;7.32;4.20;;;15.10;99.90;;;;;;12215215;29;20175;-84
2022/06/09 23:54:18;;;;;;;9.50;4.00;;;15.10;99.90;;;;;;12204213;29;20111;-84
